createdAt,value
2022-08-31T00:00:13.378Z,1020.58
2022-08-31T00:01:13.537Z,1020.61
2022-08-31T00:02:13.646Z,1020.62
2022-08-31T00:03:13.653Z,1020.68
2022-08-31T00:04:13.594Z,1020.66
2022-08-31T00:05:13.460Z,1020.66
2022-08-31T00:06:13.302Z,1020.70
2022-08-31T00:07:13.204Z,1020.68
2022-08-31T00:08:13.444Z,1020.68
2022-08-31T00:09:14.208Z,1020.74
2022-08-31T00:10:13.107Z,1020.72
2022-08-31T00:11:13.281Z,1020.73
2022-08-31T00:12:13.081Z,1020.69
2022-08-31T00:13:13.218Z,1020.72
2022-08-31T00:14:14.289Z,1020.69
2022-08-31T00:15:13.316Z,1020.71
2022-08-31T00:16:13.440Z,1020.67
2022-08-31T00:17:13.318Z,1020.70
2022-08-31T00:18:13.228Z,1020.71
2022-08-31T00:19:13.033Z,1020.75
2022-08-31T00:20:32.293Z,1020.75
2022-08-31T00:21:13.097Z,1020.69
2022-08-31T00:22:13.145Z,1020.72
2022-08-31T00:23:13.057Z,1020.67
2022-08-31T00:24:12.904Z,1020.66
2022-08-31T00:25:12.877Z,1020.68
2022-08-31T00:26:14.113Z,1020.68
2022-08-31T00:27:12.987Z,1020.65
2022-08-31T00:28:12.823Z,1020.66
2022-08-31T00:29:13.707Z,1020.62
2022-08-31T00:30:13.553Z,1020.64
2022-08-31T00:31:13.490Z,1020.62
2022-08-31T00:32:13.406Z,1020.60
2022-08-31T00:33:13.604Z,1020.59
2022-08-31T00:34:13.711Z,1020.63
2022-08-31T00:35:13.642Z,1020.62
2022-08-31T00:36:13.805Z,1020.68
2022-08-31T00:37:13.680Z,1020.66
2022-08-31T00:38:14.311Z,1020.65
2022-08-31T00:39:13.879Z,1020.68
2022-08-31T00:40:13.869Z,1020.69
2022-08-31T00:41:12.770Z,1020.68
2022-08-31T00:42:13.791Z,1020.70
2022-08-31T00:43:14.205Z,1020.69
2022-08-31T00:44:13.179Z,1020.73
2022-08-31T00:45:13.254Z,1020.71
2022-08-31T00:46:34.486Z,1020.69
2022-08-31T00:47:13.674Z,1020.69
2022-08-31T00:48:15.045Z,1020.71
2022-08-31T00:49:12.969Z,1020.72
2022-08-31T00:50:13.201Z,1020.72
2022-08-31T00:51:15.275Z,1020.65
2022-08-31T00:52:12.804Z,1020.68
2022-08-31T00:53:14.035Z,1020.71
2022-08-31T00:54:13.154Z,1020.68
2022-08-31T00:55:13.219Z,1020.74
2022-08-31T00:56:13.378Z,1020.72
2022-08-31T00:57:13.648Z,1020.68
2022-08-31T00:58:13.491Z,1020.69
2022-08-31T00:59:13.504Z,1020.71
2022-08-31T01:00:18.427Z,1020.68
2022-08-31T01:01:13.650Z,1020.71
2022-08-31T01:02:13.455Z,1020.71
2022-08-31T01:03:13.661Z,1020.70
2022-08-31T01:04:14.003Z,1020.71
2022-08-31T01:05:13.216Z,1020.70
2022-08-31T01:06:13.146Z,1020.70
2022-08-31T01:07:13.074Z,1020.74
2022-08-31T01:08:13.338Z,1020.71
2022-08-31T01:09:13.402Z,1020.70
2022-08-31T01:10:13.439Z,1020.73
2022-08-31T01:11:13.792Z,1020.69
2022-08-31T01:12:13.649Z,1020.73
2022-08-31T01:13:13.786Z,1020.68
2022-08-31T01:14:13.760Z,1020.74
2022-08-31T01:15:13.601Z,1020.75
2022-08-31T01:16:13.535Z,1020.79
2022-08-31T01:17:13.422Z,1020.79
2022-08-31T01:18:13.321Z,1020.80
2022-08-31T01:19:12.968Z,1020.79
2022-08-31T01:20:12.837Z,1020.87
2022-08-31T01:21:13.986Z,1020.87
2022-08-31T01:22:13.240Z,1020.86
2022-08-31T01:23:13.364Z,1020.85
2022-08-31T01:24:13.696Z,1020.89
2022-08-31T01:25:13.628Z,1020.90
2022-08-31T01:26:13.805Z,1020.90
2022-08-31T01:27:13.704Z,1020.94
2022-08-31T01:28:13.481Z,1020.96
2022-08-31T01:29:13.464Z,1020.92
2022-08-31T01:30:13.261Z,1021.00
2022-08-31T01:31:13.394Z,1020.98
2022-08-31T01:32:13.443Z,1020.95
2022-08-31T01:33:13.455Z,1020.99
2022-08-31T01:34:13.363Z,1020.99
2022-08-31T01:35:13.492Z,1021.00
2022-08-31T01:36:15.962Z,1020.98
2022-08-31T01:37:13.662Z,1020.98
2022-08-31T01:38:13.520Z,1020.97
2022-08-31T01:39:13.691Z,1020.98
2022-08-31T01:40:13.573Z,1020.99
2022-08-31T01:41:14.316Z,1020.96
2022-08-31T01:42:13.900Z,1021.01
2022-08-31T01:43:13.094Z,1020.98
2022-08-31T01:44:13.305Z,1020.99
2022-08-31T01:45:13.400Z,1020.98
2022-08-31T01:46:13.326Z,1021.00
2022-08-31T01:47:14.922Z,1021.02
2022-08-31T01:48:12.807Z,1020.99
2022-08-31T01:49:13.625Z,1020.98
2022-08-31T01:50:13.718Z,1021.01
2022-08-31T01:51:13.848Z,1020.99
2022-08-31T01:52:13.976Z,1021.00
2022-08-31T01:53:13.275Z,1020.99
2022-08-31T01:54:13.705Z,1021.02
2022-08-31T01:55:13.873Z,1021.03
2022-08-31T01:56:14.112Z,1021.02
2022-08-31T01:57:13.252Z,1020.98
2022-08-31T01:58:13.133Z,1020.99
2022-08-31T01:59:13.125Z,1020.98
2022-08-31T02:00:13.074Z,1020.97
2022-08-31T02:01:33.943Z,1020.95
2022-08-31T02:02:13.868Z,1020.94
2022-08-31T02:03:12.754Z,1020.97
2022-08-31T02:04:13.549Z,1020.94
2022-08-31T02:05:13.414Z,1020.96
2022-08-31T02:06:13.318Z,1020.94
2022-08-31T02:07:13.329Z,1020.96
2022-08-31T02:08:13.193Z,1020.96
2022-08-31T02:09:13.213Z,1020.95
2022-08-31T02:10:13.218Z,1020.99
2022-08-31T02:11:13.282Z,1020.96
2022-08-31T02:12:13.670Z,1020.94
2022-08-31T02:13:13.719Z,1020.93
2022-08-31T02:14:13.700Z,1020.96
2022-08-31T02:15:13.714Z,1020.93
2022-08-31T02:16:13.730Z,1020.96
2022-08-31T02:17:15.157Z,1020.92
2022-08-31T02:18:13.178Z,1020.90
2022-08-31T02:19:13.812Z,1020.89
2022-08-31T02:20:15.252Z,1020.89
2022-08-31T02:21:13.176Z,1020.85
2022-08-31T02:22:13.208Z,1020.83
2022-08-31T02:23:13.345Z,1020.86
2022-08-31T02:24:15.164Z,1020.88
2022-08-31T02:25:13.058Z,1020.88
2022-08-31T02:26:12.861Z,1020.91
2022-08-31T02:27:13.766Z,1020.90
2022-08-31T02:28:13.660Z,1020.90
2022-08-31T02:29:13.920Z,1020.90
2022-08-31T02:30:12.894Z,1020.90
2022-08-31T02:31:12.809Z,1020.95
2022-08-31T02:32:20.137Z,1020.95
2022-08-31T02:33:13.745Z,1020.91
2022-08-31T02:34:13.998Z,1020.95
2022-08-31T02:35:12.998Z,1020.95
2022-08-31T02:36:13.172Z,1020.94
2022-08-31T02:37:13.426Z,1020.94
2022-08-31T02:38:13.310Z,1020.94
2022-08-31T02:39:13.236Z,1020.96
2022-08-31T02:40:13.387Z,1020.94
2022-08-31T02:41:13.495Z,1020.95
2022-08-31T02:42:13.643Z,1020.92
2022-08-31T02:43:24.288Z,1020.92
2022-08-31T02:44:13.187Z,1020.93
2022-08-31T02:45:13.152Z,1020.94
2022-08-31T02:46:13.203Z,1020.93
2022-08-31T02:47:13.207Z,1020.95
2022-08-31T02:48:13.153Z,1020.91
2022-08-31T02:49:14.054Z,1020.90
2022-08-31T02:50:12.923Z,1020.89
2022-08-31T02:51:12.813Z,1020.90
2022-08-31T02:52:13.785Z,1020.91
2022-08-31T02:53:13.974Z,1020.91
2022-08-31T02:54:13.120Z,1020.87
2022-08-31T02:55:13.204Z,1020.88
2022-08-31T02:56:13.139Z,1020.90
2022-08-31T02:57:12.959Z,1020.87
2022-08-31T02:58:12.785Z,1020.87
2022-08-31T02:59:13.659Z,1020.91
2022-08-31T03:00:13.735Z,1020.90
2022-08-31T03:01:14.113Z,1020.88
2022-08-31T03:02:13.354Z,1020.92
2022-08-31T03:03:13.413Z,1020.90
2022-08-31T03:04:13.529Z,1020.90
2022-08-31T03:05:13.412Z,1020.89
2022-08-31T03:06:13.441Z,1020.86
2022-08-31T03:07:13.527Z,1020.83
2022-08-31T03:08:13.480Z,1020.81
2022-08-31T03:09:13.602Z,1020.81
2022-08-31T03:10:13.572Z,1020.78
2022-08-31T03:11:13.416Z,1020.82
2022-08-31T03:12:13.287Z,1020.81
2022-08-31T03:13:13.121Z,1020.82
2022-08-31T03:14:13.537Z,1020.79
2022-08-31T03:15:13.594Z,1020.80
2022-08-31T03:16:13.677Z,1020.83
2022-08-31T03:17:14.047Z,1020.80
2022-08-31T03:18:13.042Z,1020.82
2022-08-31T03:19:13.072Z,1020.83
2022-08-31T03:20:12.869Z,1020.82
2022-08-31T03:21:13.903Z,1020.83
2022-08-31T03:22:12.822Z,1020.84
2022-08-31T03:23:13.874Z,1020.89
2022-08-31T03:24:12.943Z,1020.88
2022-08-31T03:25:12.953Z,1020.86
2022-08-31T03:26:12.831Z,1020.87
2022-08-31T03:27:14.209Z,1020.91
2022-08-31T03:28:13.036Z,1020.86
2022-08-31T03:29:13.067Z,1020.91
2022-08-31T03:30:13.264Z,1020.88
2022-08-31T03:31:13.267Z,1020.89
2022-08-31T03:32:13.263Z,1020.86
2022-08-31T03:33:13.122Z,1020.84
2022-08-31T03:34:15.889Z,1020.82
2022-08-31T03:35:13.211Z,1020.85
2022-08-31T03:36:13.105Z,1020.85
2022-08-31T03:37:13.034Z,1020.87
2022-08-31T03:38:13.203Z,1020.89
2022-08-31T03:39:13.323Z,1020.85
2022-08-31T03:40:13.228Z,1020.87
2022-08-31T03:41:13.539Z,1020.89
2022-08-31T03:42:13.867Z,1020.90
2022-08-31T03:43:14.175Z,1020.88
2022-08-31T03:44:14.758Z,1020.88
2022-08-31T03:45:13.596Z,1020.89
2022-08-31T03:46:13.565Z,1020.93
2022-08-31T03:47:14.638Z,1020.91
2022-08-31T03:48:13.392Z,1020.89
2022-08-31T03:49:14.851Z,1020.92
2022-08-31T03:50:13.880Z,1020.94
2022-08-31T03:51:13.687Z,1020.91
2022-08-31T03:52:13.556Z,1020.91
2022-08-31T03:53:13.444Z,1020.92
2022-08-31T03:54:13.355Z,1020.88
2022-08-31T03:55:13.202Z,1020.87
2022-08-31T03:56:13.106Z,1020.88
2022-08-31T03:57:12.934Z,1020.84
2022-08-31T03:58:12.949Z,1020.84
2022-08-31T03:59:13.131Z,1020.87
2022-08-31T04:00:12.963Z,1020.89
2022-08-31T04:01:13.319Z,1020.88
2022-08-31T04:02:13.569Z,1020.93
2022-08-31T04:03:13.869Z,1020.90
2022-08-31T04:04:13.199Z,1020.91
2022-08-31T04:05:13.427Z,1020.92
2022-08-31T04:06:13.408Z,1020.97
2022-08-31T04:07:13.591Z,1020.96
2022-08-31T04:08:13.490Z,1020.97
2022-08-31T04:09:13.389Z,1020.94
2022-08-31T04:10:13.643Z,1020.93
2022-08-31T04:11:13.731Z,1020.92
2022-08-31T04:12:13.601Z,1020.90
2022-08-31T04:13:13.489Z,1020.91
2022-08-31T04:15:13.841Z,1020.90
2022-08-31T04:16:14.205Z,1020.87
2022-08-31T04:17:13.223Z,1020.90
2022-08-31T04:18:13.499Z,1020.83
2022-08-31T04:19:13.627Z,1020.86
2022-08-31T04:20:13.809Z,1020.86
2022-08-31T04:21:14.017Z,1020.88
2022-08-31T04:22:12.979Z,1020.84
2022-08-31T04:23:12.915Z,1020.90
2022-08-31T04:24:13.081Z,1020.89
2022-08-31T04:25:13.147Z,1020.91
2022-08-31T04:26:13.370Z,1020.90
2022-08-31T04:27:13.273Z,1020.93
2022-08-31T04:28:13.184Z,1020.93
2022-08-31T04:29:13.819Z,1020.91
2022-08-31T04:31:14.556Z,1020.97
2022-08-31T04:31:15.944Z,1020.97
2022-08-31T04:32:12.842Z,1020.91
2022-08-31T04:33:13.973Z,1020.97
2022-08-31T04:34:13.083Z,1020.93
2022-08-31T04:35:12.973Z,1020.91
2022-08-31T04:36:13.251Z,1020.97
2022-08-31T04:37:13.693Z,1020.94
2022-08-31T04:38:13.570Z,1020.95
2022-08-31T04:39:13.623Z,1020.96
2022-08-31T04:40:13.924Z,1020.95
2022-08-31T04:41:13.228Z,1020.94
2022-08-31T04:42:13.031Z,1020.92
2022-08-31T04:43:12.865Z,1020.97
2022-08-31T04:44:19.181Z,1020.95
2022-08-31T04:45:13.005Z,1020.95
2022-08-31T04:46:12.988Z,1020.98
2022-08-31T04:47:12.903Z,1020.96
2022-08-31T04:48:13.027Z,1020.99
2022-08-31T04:49:13.183Z,1020.97
2022-08-31T04:50:13.127Z,1020.99
2022-08-31T04:51:13.252Z,1020.99
2022-08-31T04:52:14.993Z,1021.01
2022-08-31T04:53:13.450Z,1021.02
2022-08-31T04:54:13.536Z,1020.98
2022-08-31T04:55:13.611Z,1021.01
2022-08-31T04:56:13.859Z,1021.02
2022-08-31T04:57:13.746Z,1021.04
2022-08-31T04:58:13.857Z,1021.03
2022-08-31T04:59:13.305Z,1021.02
2022-08-31T05:00:13.192Z,1021.06
2022-08-31T05:01:13.094Z,1021.05
2022-08-31T05:02:13.231Z,1021.06
2022-08-31T05:03:13.523Z,1021.03
2022-08-31T05:04:13.879Z,1021.00
2022-08-31T05:05:13.743Z,1021.04
2022-08-31T05:06:13.716Z,1021.07
2022-08-31T05:07:13.716Z,1021.03
2022-08-31T05:08:13.657Z,1021.06
2022-08-31T05:09:13.539Z,1021.07
2022-08-31T05:10:13.406Z,1021.05
2022-08-31T05:11:13.285Z,1021.03
2022-08-31T05:12:13.222Z,1021.03
2022-08-31T05:13:13.075Z,1021.05
2022-08-31T05:14:13.151Z,1021.06
2022-08-31T05:15:13.263Z,1021.01
2022-08-31T05:16:13.358Z,1021.02
2022-08-31T05:17:14.974Z,1021.04
2022-08-31T05:18:13.221Z,1021.03
2022-08-31T05:19:13.150Z,1021.04
2022-08-31T05:20:13.724Z,1021.06
2022-08-31T05:21:14.011Z,1021.07
2022-08-31T05:22:14.107Z,1021.07
2022-08-31T05:23:18.627Z,1021.07
2022-08-31T05:24:13.583Z,1021.09
2022-08-31T05:25:13.482Z,1021.09
2022-08-31T05:26:13.469Z,1021.09
2022-08-31T05:27:13.816Z,1021.10
2022-08-31T05:28:13.618Z,1021.09
2022-08-31T05:29:13.809Z,1021.07
2022-08-31T05:30:13.662Z,1021.09
2022-08-31T05:31:14.324Z,1021.08
2022-08-31T05:32:13.388Z,1021.07
2022-08-31T05:33:13.622Z,1021.09
2022-08-31T05:34:13.767Z,1021.07
2022-08-31T05:35:13.658Z,1021.07
2022-08-31T05:36:14.805Z,1021.06
2022-08-31T05:37:13.728Z,1021.07
2022-08-31T05:38:13.572Z,1021.06
2022-08-31T05:39:13.616Z,1021.10
2022-08-31T05:40:13.520Z,1021.09
2022-08-31T05:41:13.479Z,1021.09
2022-08-31T05:42:13.460Z,1021.06
2022-08-31T05:43:13.466Z,1021.08
2022-08-31T05:44:13.525Z,1021.08
2022-08-31T05:45:13.585Z,1021.10
2022-08-31T05:46:13.847Z,1021.10
2022-08-31T05:47:13.131Z,1021.11
2022-08-31T05:48:13.014Z,1021.14
2022-08-31T05:49:13.740Z,1021.11
2022-08-31T05:50:13.870Z,1021.14
2022-08-31T05:51:13.194Z,1021.14
2022-08-31T05:52:13.035Z,1021.15
2022-08-31T05:53:13.184Z,1021.17
2022-08-31T05:54:13.150Z,1021.21
2022-08-31T05:55:13.189Z,1021.18
2022-08-31T05:56:13.416Z,1021.22
2022-08-31T05:57:13.272Z,1021.19
2022-08-31T05:58:13.506Z,1021.20
2022-08-31T05:59:13.451Z,1021.23
2022-08-31T06:00:13.666Z,1021.23
2022-08-31T06:01:13.708Z,1021.17
2022-08-31T06:02:14.969Z,1021.17
2022-08-31T06:03:12.915Z,1021.20
2022-08-31T06:04:12.931Z,1021.22
2022-08-31T06:05:12.898Z,1021.23
2022-08-31T06:06:13.039Z,1021.20
2022-08-31T06:07:13.100Z,1021.22
2022-08-31T06:08:15.251Z,1021.19
2022-08-31T06:09:13.584Z,1021.23
2022-08-31T06:10:13.569Z,1021.24
2022-08-31T06:11:13.489Z,1021.25
2022-08-31T06:12:13.754Z,1021.26
2022-08-31T06:13:13.969Z,1021.25
2022-08-31T06:14:13.336Z,1021.30
2022-08-31T06:15:13.418Z,1021.28
2022-08-31T06:16:13.363Z,1021.28
2022-08-31T06:17:13.463Z,1021.28
2022-08-31T06:18:13.578Z,1021.28
2022-08-31T06:19:15.364Z,1021.29
2022-08-31T06:20:17.577Z,1021.28
2022-08-31T06:21:13.087Z,1021.26
2022-08-31T06:22:12.973Z,1021.29
2022-08-31T06:23:13.025Z,1021.31
2022-08-31T06:24:12.996Z,1021.27
2022-08-31T06:25:13.043Z,1021.28
2022-08-31T06:26:13.067Z,1021.31
2022-08-31T06:27:13.382Z,1021.29
2022-08-31T06:28:13.453Z,1021.27
2022-08-31T06:29:13.299Z,1021.31
2022-08-31T06:30:13.331Z,1021.28
2022-08-31T06:31:13.315Z,1021.25
2022-08-31T06:32:13.587Z,1021.33
2022-08-31T06:33:13.425Z,1021.28
2022-08-31T06:34:13.423Z,1021.32
2022-08-31T06:35:13.563Z,1021.36
2022-08-31T06:36:13.648Z,1021.32
2022-08-31T06:37:18.783Z,1021.32
2022-08-31T06:38:13.295Z,1021.35
2022-08-31T06:39:13.242Z,1021.34
2022-08-31T06:40:13.443Z,1021.39
2022-08-31T06:41:13.386Z,1021.40
2022-08-31T06:42:13.301Z,1021.38
2022-08-31T06:43:13.336Z,1021.38
2022-08-31T06:44:13.758Z,1021.37
2022-08-31T06:45:13.710Z,1021.40
2022-08-31T06:46:18.911Z,1021.36
2022-08-31T06:47:12.961Z,1021.40
2022-08-31T06:48:12.814Z,1021.41
2022-08-31T06:49:13.645Z,1021.43
2022-08-31T06:50:13.677Z,1021.43
2022-08-31T06:51:13.505Z,1021.50
2022-08-31T06:52:13.446Z,1021.48
2022-08-31T06:53:13.504Z,1021.46
2022-08-31T06:54:29.091Z,1021.48
2022-08-31T06:55:12.960Z,1021.48
2022-08-31T06:56:20.420Z,1021.53
2022-08-31T06:57:13.840Z,1021.55
2022-08-31T06:58:13.743Z,1021.56
2022-08-31T06:59:18.868Z,1021.57
2022-08-31T07:00:13.780Z,1021.65
2022-08-31T07:01:13.727Z,1021.63
2022-08-31T07:02:15.005Z,1021.65
2022-08-31T07:03:13.323Z,1021.64
2022-08-31T07:04:13.433Z,1021.63
2022-08-31T07:05:24.530Z,1021.67
2022-08-31T07:06:13.294Z,1021.68
2022-08-31T07:07:13.539Z,1021.67
2022-08-31T07:08:13.476Z,1021.71
2022-08-31T07:09:13.496Z,1021.71
2022-08-31T07:10:13.465Z,1021.69
2022-08-31T07:11:13.499Z,1021.75
2022-08-31T07:12:13.753Z,1021.77
2022-08-31T07:13:13.543Z,1021.75
2022-08-31T07:14:13.641Z,1021.75
2022-08-31T07:15:13.673Z,1021.76
2022-08-31T07:16:13.914Z,1021.79
2022-08-31T07:17:13.275Z,1021.78
2022-08-31T07:18:13.439Z,1021.75
2022-08-31T07:19:13.628Z,1021.78
2022-08-31T07:20:13.550Z,1021.77
2022-08-31T07:21:13.482Z,1021.79
2022-08-31T07:22:13.546Z,1021.81
2022-08-31T07:23:13.758Z,1021.79
2022-08-31T07:24:13.649Z,1021.82
2022-08-31T07:25:13.523Z,1021.82
2022-08-31T07:26:15.251Z,1021.82
2022-08-31T07:27:13.247Z,1021.86
2022-08-31T07:28:13.503Z,1021.84
2022-08-31T07:29:13.330Z,1021.88
2022-08-31T07:30:13.908Z,1021.89
2022-08-31T07:31:14.825Z,1021.87
2022-08-31T07:32:13.868Z,1021.88
2022-08-31T07:33:14.006Z,1021.89
2022-08-31T07:34:13.316Z,1021.89
2022-08-31T07:35:13.541Z,1021.86
2022-08-31T07:36:13.495Z,1021.85
2022-08-31T07:37:13.516Z,1021.84
2022-08-31T07:38:14.093Z,1021.89
2022-08-31T07:39:13.084Z,1021.87
2022-08-31T07:40:13.115Z,1021.88
2022-08-31T07:41:13.240Z,1021.85
2022-08-31T07:42:13.041Z,1021.83
2022-08-31T07:43:13.360Z,1021.87
2022-08-31T07:44:13.646Z,1021.84
2022-08-31T07:45:13.715Z,1021.83
2022-08-31T07:46:13.606Z,1021.87
2022-08-31T07:47:13.469Z,1021.88
2022-08-31T07:48:13.386Z,1021.87
2022-08-31T07:49:13.507Z,1021.88
2022-08-31T07:50:13.420Z,1021.88
2022-08-31T07:51:15.313Z,1021.86
2022-08-31T07:52:13.365Z,1021.88
2022-08-31T07:53:13.660Z,1021.88
2022-08-31T07:54:13.834Z,1021.85
2022-08-31T07:55:13.729Z,1021.90
2022-08-31T07:56:14.006Z,1021.89
2022-08-31T07:57:12.926Z,1021.91
2022-08-31T07:58:13.501Z,1021.94
2022-08-31T07:59:14.459Z,1021.92
2022-08-31T08:00:13.444Z,1021.93
2022-08-31T08:01:13.370Z,1021.93
2022-08-31T08:02:17.235Z,1021.89
2022-08-31T08:03:18.884Z,1021.94
2022-08-31T08:04:12.852Z,1021.93
2022-08-31T08:05:14.031Z,1021.98
2022-08-31T08:06:12.928Z,1021.97
2022-08-31T08:07:12.924Z,1021.98
2022-08-31T08:08:15.673Z,1021.99
2022-08-31T08:09:24.163Z,1022.01
2022-08-31T08:10:14.608Z,1022.00
2022-08-31T08:11:15.513Z,1022.06
2022-08-31T08:12:13.081Z,1022.05
2022-08-31T08:13:13.805Z,1022.01
2022-08-31T08:14:14.118Z,1022.08
2022-08-31T08:15:13.104Z,1022.10
2022-08-31T08:16:13.065Z,1022.05
2022-08-31T08:17:13.356Z,1022.11
2022-08-31T08:18:13.312Z,1022.11
2022-08-31T08:19:13.528Z,1022.09
2022-08-31T08:20:13.983Z,1022.07
2022-08-31T08:21:13.550Z,1022.08
2022-08-31T08:22:26.142Z,1022.03
2022-08-31T08:23:26.881Z,1022.10
2022-08-31T08:24:13.661Z,1022.12
2022-08-31T08:25:13.459Z,1022.05
2022-08-31T08:26:21.227Z,1022.03
2022-08-31T08:27:13.821Z,1022.07
2022-08-31T08:28:36.019Z,1022.09
2022-08-31T08:29:13.464Z,1022.07
2022-08-31T08:30:13.341Z,1022.05
2022-08-31T08:31:13.309Z,1022.08
2022-08-31T08:32:17.399Z,1022.08
2022-08-31T08:33:13.657Z,1022.07
2022-08-31T08:34:13.829Z,1022.05
2022-08-31T08:35:13.909Z,1022.00
2022-08-31T08:36:13.107Z,1022.05
2022-08-31T08:37:13.006Z,1022.02
2022-08-31T08:38:13.011Z,1021.98
2022-08-31T08:39:13.414Z,1021.98
2022-08-31T08:40:13.428Z,1022.01
2022-08-31T08:41:13.452Z,1021.99
2022-08-31T08:42:13.731Z,1022.03
2022-08-31T08:43:13.702Z,1022.03
2022-08-31T08:44:16.759Z,1022.01
2022-08-31T08:45:12.916Z,1022.03
2022-08-31T08:46:33.606Z,1022.05
2022-08-31T08:47:13.601Z,1022.07
2022-08-31T08:48:13.478Z,1022.00
2022-08-31T08:49:13.314Z,1022.06
2022-08-31T08:50:13.318Z,1022.08
2022-08-31T08:51:13.598Z,1022.11
2022-08-31T08:52:13.849Z,1022.08
2022-08-31T08:53:14.106Z,1022.13
2022-08-31T08:54:13.099Z,1022.07
2022-08-31T08:55:12.984Z,1022.10
2022-08-31T08:56:32.421Z,1022.06
2022-08-31T08:57:13.923Z,1022.06
2022-08-31T08:58:13.575Z,1022.05
2022-08-31T08:59:19.232Z,1022.10
2022-08-31T09:00:13.343Z,1022.06
2022-08-31T09:01:13.847Z,1022.08
2022-08-31T09:02:14.094Z,1022.08
2022-08-31T09:03:13.077Z,1022.06
2022-08-31T09:04:15.708Z,1022.09
2022-08-31T09:05:13.805Z,1022.09
2022-08-31T09:06:14.583Z,1022.05
2022-08-31T09:07:13.509Z,1022.09
2022-08-31T09:08:13.403Z,1022.11
2022-08-31T09:09:13.568Z,1022.07
2022-08-31T09:10:13.474Z,1022.09
2022-08-31T09:11:14.036Z,1022.13
2022-08-31T09:12:14.880Z,1022.06
2022-08-31T09:13:13.441Z,1022.07
2022-08-31T09:14:14.845Z,1022.14
2022-08-31T09:15:13.663Z,1022.14
2022-08-31T09:16:13.619Z,1022.09
2022-08-31T09:17:13.583Z,1022.11
2022-08-31T09:18:16.485Z,1022.13
2022-08-31T09:19:14.003Z,1022.15
2022-08-31T09:20:13.002Z,1022.14
2022-08-31T09:21:12.964Z,1022.13
2022-08-31T09:22:12.896Z,1022.12
2022-08-31T09:23:18.380Z,1022.20
2022-08-31T09:24:13.694Z,1022.19
2022-08-31T09:25:13.916Z,1022.17
2022-08-31T09:26:13.154Z,1022.15
2022-08-31T09:27:13.251Z,1022.15
2022-08-31T09:28:13.167Z,1022.18
2022-08-31T09:29:13.327Z,1022.07
2022-08-31T09:30:14.881Z,1022.16
2022-08-31T09:31:13.861Z,1022.15
2022-08-31T09:32:14.407Z,1022.12
2022-08-31T09:33:13.305Z,1022.07
2022-08-31T09:34:13.189Z,1022.08
2022-08-31T09:35:13.401Z,1022.11
2022-08-31T09:36:13.605Z,1022.10
2022-08-31T09:37:16.647Z,1022.05
2022-08-31T09:38:13.724Z,1022.06
2022-08-31T09:39:15.200Z,1022.06
2022-08-31T09:40:14.631Z,1022.09
2022-08-31T09:41:15.008Z,1022.08
2022-08-31T09:42:12.859Z,1022.00
2022-08-31T09:43:13.970Z,1022.04
2022-08-31T09:44:13.244Z,1022.03
2022-08-31T09:45:14.200Z,1022.02
2022-08-31T09:46:13.170Z,1022.05
2022-08-31T09:47:13.050Z,1022.07
2022-08-31T09:48:12.965Z,1021.98
2022-08-31T09:49:14.620Z,1022.04
2022-08-31T09:50:13.795Z,1022.08
2022-08-31T09:51:14.566Z,1022.03
2022-08-31T09:52:13.803Z,1022.02
2022-08-31T09:53:19.130Z,1022.00
2022-08-31T09:54:13.340Z,1022.00
2022-08-31T09:55:13.137Z,1022.01
2022-08-31T09:56:13.463Z,1022.02
2022-08-31T09:57:13.586Z,1022.03
2022-08-31T09:58:13.623Z,1022.00
2022-08-31T09:59:13.476Z,1022.02
2022-08-31T10:00:16.682Z,1022.07
2022-08-31T10:01:13.647Z,1022.03
2022-08-31T10:02:13.598Z,1021.95
2022-08-31T10:03:14.849Z,1022.01
2022-08-31T10:04:15.343Z,1022.03
2022-08-31T10:05:13.462Z,1022.02
2022-08-31T10:06:13.296Z,1022.03
2022-08-31T10:07:13.302Z,1022.00
2022-08-31T10:08:17.540Z,1021.99
2022-08-31T10:09:13.341Z,1022.00
2022-08-31T10:10:28.114Z,1022.00
2022-08-31T10:11:13.904Z,1022.02
2022-08-31T10:12:13.133Z,1021.98
2022-08-31T10:13:13.017Z,1022.03
2022-08-31T10:14:13.909Z,1022.01
2022-08-31T10:15:15.579Z,1022.09
2022-08-31T10:16:13.971Z,1021.98
2022-08-31T10:17:14.571Z,1022.04
2022-08-31T10:18:13.575Z,1022.06
2022-08-31T10:19:14.944Z,1022.07
2022-08-31T10:20:16.154Z,1022.02
2022-08-31T10:21:13.451Z,1022.03
2022-08-31T10:22:14.298Z,1022.04
2022-08-31T10:23:13.644Z,1022.00
2022-08-31T10:24:16.040Z,1021.95
2022-08-31T10:25:12.865Z,1022.00
2022-08-31T10:26:15.344Z,1022.06
2022-08-31T10:27:13.509Z,1022.00
2022-08-31T10:28:14.516Z,1021.98
2022-08-31T10:29:20.759Z,1021.91
2022-08-31T10:30:14.368Z,1022.01
2022-08-31T10:31:14.268Z,1022.03
2022-08-31T10:32:13.813Z,1022.07
2022-08-31T10:33:13.889Z,1021.99
2022-08-31T10:34:16.741Z,1022.08
2022-08-31T10:35:14.177Z,1022.09
2022-08-31T10:36:13.089Z,1022.08
2022-08-31T10:37:12.958Z,1022.09
2022-08-31T10:38:19.972Z,1022.07
2022-08-31T10:39:15.015Z,1022.09
2022-08-31T10:40:16.226Z,1022.09
2022-08-31T10:41:13.185Z,1022.06
2022-08-31T10:42:13.019Z,1022.08
2022-08-31T10:43:14.762Z,1022.10
2022-08-31T10:44:15.731Z,1022.04
2022-08-31T10:45:18.587Z,1022.11
2022-08-31T10:46:12.883Z,1022.09
2022-08-31T10:47:21.571Z,1022.05
2022-08-31T10:48:13.736Z,1022.03
2022-08-31T10:49:16.630Z,1021.99
2022-08-31T10:50:13.496Z,1022.01
2022-08-31T10:51:14.875Z,1022.03
2022-08-31T10:52:13.736Z,1022.00
2022-08-31T10:53:14.137Z,1022.03
2022-08-31T10:54:13.282Z,1022.07
2022-08-31T10:55:16.842Z,1022.05
2022-08-31T10:56:15.653Z,1022.07
2022-08-31T10:57:21.319Z,1022.06
2022-08-31T10:58:16.561Z,1022.01
2022-08-31T10:59:13.757Z,1022.01
2022-08-31T11:00:18.844Z,1022.02
2022-08-31T11:01:18.326Z,1021.96
2022-08-31T11:02:13.303Z,1021.95
2022-08-31T11:03:14.822Z,1021.94
2022-08-31T11:04:15.551Z,1022.00
2022-08-31T11:05:13.652Z,1021.96
2022-08-31T11:06:17.619Z,1021.99
2022-08-31T11:07:13.610Z,1021.98
2022-08-31T11:08:17.981Z,1021.94
2022-08-31T11:09:15.234Z,1021.95
2022-08-31T11:10:18.271Z,1021.99
2022-08-31T11:11:14.318Z,1021.98
2022-08-31T11:12:20.265Z,1022.00
2022-08-31T11:13:13.295Z,1021.97
2022-08-31T11:14:16.600Z,1021.95
2022-08-31T11:15:20.717Z,1021.95
2022-08-31T11:16:14.363Z,1021.99
2022-08-31T11:17:14.953Z,1021.96
2022-08-31T11:18:14.724Z,1021.93
2022-08-31T11:19:16.697Z,1021.89
2022-08-31T11:20:16.949Z,1021.94
2022-08-31T11:21:15.089Z,1021.95
2022-08-31T11:22:17.256Z,1021.95
2022-08-31T11:23:19.008Z,1021.94
2022-08-31T11:24:14.986Z,1021.92
2022-08-31T11:25:17.809Z,1021.92
2022-08-31T11:26:15.847Z,1021.95
2022-08-31T11:27:18.230Z,1021.98
2022-08-31T11:28:16.440Z,1021.97
2022-08-31T11:29:15.123Z,1021.96
2022-08-31T11:30:14.681Z,1021.95
2022-08-31T11:31:16.292Z,1022.00
2022-08-31T11:32:16.849Z,1021.96
2022-08-31T11:33:13.514Z,1021.88
2022-08-31T11:34:16.479Z,1021.92
2022-08-31T11:35:16.342Z,1021.94
2022-08-31T11:36:18.266Z,1021.93
2022-08-31T11:37:13.215Z,1022.00
2022-08-31T11:38:14.132Z,1021.95
2022-08-31T11:39:17.434Z,1021.97
2022-08-31T11:40:22.939Z,1022.00
2022-08-31T11:41:16.913Z,1021.95
2022-08-31T11:42:16.983Z,1021.90
2022-08-31T11:43:15.229Z,1021.94
2022-08-31T11:44:14.922Z,1021.92
2022-08-31T11:45:19.544Z,1021.94
2022-08-31T11:46:17.351Z,1021.85
2022-08-31T11:47:19.028Z,1021.85
2022-08-31T11:48:13.431Z,1021.86
2022-08-31T11:49:18.180Z,1021.88
2022-08-31T11:50:16.044Z,1021.84
2022-08-31T11:51:16.838Z,1021.85
2022-08-31T11:52:15.489Z,1021.82
2022-08-31T11:53:15.306Z,1021.82
2022-08-31T11:54:14.751Z,1021.76
2022-08-31T11:55:19.075Z,1021.81
2022-08-31T11:56:17.837Z,1021.84
2022-08-31T11:57:16.983Z,1021.78
2022-08-31T11:58:21.266Z,1021.80
2022-08-31T11:59:17.797Z,1021.90
2022-08-31T12:00:18.635Z,1021.79
2022-08-31T12:01:19.770Z,1021.79
2022-08-31T12:02:23.055Z,1021.87
2022-08-31T12:03:22.016Z,1021.74
2022-08-31T12:04:22.140Z,1021.78
2022-08-31T12:05:18.009Z,1021.82
2022-08-31T12:06:17.443Z,1021.80